• Join FlightAware (Why Join?)
  • Login
  • US Flag 
10:56PM EDT


 

Airport Tracker/Info


-or-


 

Live Flight TrackerFlight Track Log ✈ ASQ4233 ✈ 28-Apr-2013 ✈ KIAH - KSAT

Flight Track Log - Related Links

Times and Time Zones

All times are in EDT time to prevent confusion due to time zone crossing. See the ASQ4233 flight status page for this flight to view local times or setup timezone preferences in your user account.

Time Position Orientation Groundspeed Altitude Reporting Facility
EDT Latitude Longitude Course Direction KTS MPH feet Rate Location/Type
10:57PM 29.9639 -95.3458 247° West 149 171 500  Level Houston Center
10:58PM 29.9367 -95.3467 182° South 183 211 1,800 1,800 Climbing Houston Center
10:59PM 29.9111 -95.3886 235° Southwest 212 244 3,200 2,040 Climbing Houston Center
11:00PM 29.8831 -95.6340 249° West  Level FlightAware Approximate
11:00PM 29.9039 -95.4750 265° West 269 310 5,700  Level Houston Center
11:00PM 29.8989 -95.5053 259° West 285 328 6,700 3,000 Climbing Houston Center
11:01PM 29.8497 -95.7344 249° West  Level FlightAware Approximate
11:01PM 29.8897 -95.5644 260° West 282 325 8,800  Level Houston Center
11:02PM 29.8150 -95.8340 247° West  Level FlightAware Approximate
11:02PM 29.8742 -95.6531 259° West 284 327 11,400  Level Houston Center
11:03PM 29.7826 -95.9230 247° West  Level FlightAware Approximate
11:03PM 29.8564 -95.7494 258° West 304 350 13,500  Level Houston Center
11:04PM 29.8378 -95.8511 258° West 322 371 15,500 1,980 Climbing Houston Center
11:05PM 29.8192 -95.9567 259° West 336 387 17,500 1,920 Climbing Houston Center
11:06PM 29.8253 -96.0672 274° West 333 383 19,500 1,980 Climbing Houston Center
11:07PM 29.8297 -96.1731 273° West 333 383 21,600 1,980 Climbing Houston Center
11:08PM 29.8339 -96.2772 273° West 328 377 23,600 1,980 Climbing Houston Center
11:09PM 29.8392 -96.3803 273° West 326 375 25,600 1,980 Climbing Houston Center
11:10PM 29.8444 -96.5017 273° West 319 367 27,700 1,680 Climbing Houston Center
11:11PM 29.8489 -96.6011 273° West 315 362 29,100 1,140 Climbing Houston Center
11:12PM 29.8536 -96.7008 273° West 315 362 30,000 420 Climbing Houston Center
11:13PM 29.8575 -96.8108 272° West 345 397 30,000 -1,020 Level Houston Center
11:14PM 29.8631 -96.9286 273° West 367 422 28,000 -2,160 Descending Houston Center
11:15PM 29.8681 -97.0486 273° West 379 436 25,700 -2,220 Descending Houston Center
11:16PM 29.8728 -97.1744 273° West 393 452 23,600 -2,040 Descending Houston Center
11:17PM 29.8778 -97.3003 273° West 395 455 21,600 -2,040 Descending Houston Center
11:18PM 29.8828 -97.4267 273° West 396 456 19,500 -2,160 Descending Houston Center
11:19PM 29.8861 -97.5594 272° West 384 442 17,300 -2,220 Descending Houston Center
11:19PM 29.8883 -97.6242 272° West 379 436 16,200 -2,160 Descending Houston Center
11:20PM 29.8914 -97.6883 273° West 378 435 15,100 -1,980 Descending Houston Center
11:20PM 29.8936 -97.7442 273° West 376 433 14,200 -1,920 Descending Houston Center
11:21PM 29.8967 -97.8081 273° West 376 433 13,200 -1,740 Descending Houston Center
11:21PM 29.8894 -97.8750 263° West 349 402 12,300 -1,380 Descending Houston Center
11:22PM 29.8758 -97.9108 246° West 328 377 11,800 -1,380 Descending Houston Center
11:22PM 29.8542 -97.9661 246° West 305 351 10,900 -1,500 Descending Houston Center
11:23PM 29.8383 -98.0000 242° Southwest 310 357 10,300 -1,620 Descending Houston Center
11:23PM 29.8181 -98.0503 245° Southwest 287 330 9,300 -1,680 Descending Houston Center
11:24PM 29.8039 -98.0822 243° Southwest 287 330 8,600 -1,740 Descending Houston Center
11:24PM 29.7819 -98.1342 244° Southwest 286 329 7,600 -1,800 Descending Houston Center
11:25PM 29.7667 -98.1722 245° Southwest 289 333 6,800 -1,500 Descending Houston Center
11:25PM 29.7497 -98.2175 247° West 288 331 6,100 -840 Descending Houston Center
11:26PM 29.7344 -98.2533 244° Southwest 281 323 6,000 -120 Descending Houston Center
11:26PM 29.7172 -98.2961 245° Southwest 272 313 6,000 -540 Level Houston Center
11:27PM 29.7033 -98.3314 246° West 270 311 5,500 -1,380 Descending Houston Center
11:28PM 29.6833 -98.3844 247° West 263 303 4,500 -1,440 Descending Houston Center
11:28PM 29.6736 -98.4078 244° Southwest 264 304 4,100 -900 Descending Houston Center
11:29PM 29.6586 -98.4572 251° West 238 274 3,600 -720 Descending Houston Center
11:29PM 29.6506 -98.4781 246° West 242 278 3,400 -840 Descending Houston Center
11:30PM 29.6333 -98.5250 247° West 228 262 2,800 -900 Descending Houston Center